createdAt,value
2017-05-27T00:00:33.563Z,8.46
2017-05-27T00:03:02.604Z,9.14
2017-05-27T00:05:31.745Z,10.58
2017-05-27T00:08:00.802Z,11.56
2017-05-27T00:10:29.959Z,10.46
2017-05-27T00:12:59.014Z,9.08
2017-05-27T00:15:28.124Z,10.16
2017-05-27T00:17:57.232Z,9.38
2017-05-27T00:20:26.323Z,10.44
2017-05-27T00:22:55.412Z,12.44
2017-05-27T00:25:24.473Z,10.86
2017-05-27T00:27:53.615Z,10.40
2017-05-27T00:30:22.700Z,11.60
2017-05-27T00:32:51.748Z,9.60
2017-05-27T00:35:20.906Z,15.88
2017-05-27T00:37:50.006Z,10.32
2017-05-27T00:40:19.075Z,14.04
2017-05-27T00:42:48.184Z,10.88
2017-05-27T00:45:17.256Z,10.44
2017-05-27T00:47:46.312Z,10.46
2017-05-27T00:50:15.356Z,13.78
2017-05-27T00:52:44.467Z,10.52
2017-05-27T00:55:13.565Z,10.22
2017-05-27T00:57:42.629Z,9.88
2017-05-27T01:00:11.756Z,11.90
2017-05-27T01:02:40.852Z,12.32
2017-05-27T01:05:09.910Z,11.10
2017-05-27T01:07:39.041Z,10.68
2017-05-27T01:10:08.113Z,13.28
2017-05-27T01:12:37.165Z,11.52
2017-05-27T01:15:06.225Z,12.56
2017-05-27T01:17:35.273Z,12.86
2017-05-27T01:20:04.418Z,12.94
2017-05-27T01:22:33.493Z,13.76
2017-05-27T01:25:02.538Z,15.86
2017-05-27T01:27:31.614Z,12.22
2017-05-27T01:30:00.698Z,13.42
2017-05-27T01:32:29.808Z,14.40
2017-05-27T01:34:58.891Z,14.76
2017-05-27T01:37:27.936Z,14.54
2017-05-27T01:39:57.029Z,11.84
2017-05-27T01:42:26.079Z,14.20
2017-05-27T01:44:55.174Z,13.22
2017-05-27T01:47:24.268Z,12.78
2017-05-27T01:49:53.317Z,15.66
2017-05-27T01:52:22.413Z,14.96
2017-05-27T01:54:51.472Z,15.32
2017-05-27T01:57:20.560Z,14.52
2017-05-27T01:59:49.628Z,14.08
2017-05-27T02:02:18.681Z,16.98
2017-05-27T02:04:47.863Z,12.76
2017-05-27T02:07:16.921Z,14.02
2017-05-27T02:09:46.002Z,12.94
2017-05-27T02:12:15.084Z,14.86
2017-05-27T02:14:44.234Z,14.00
2017-05-27T02:17:13.341Z,12.98
2017-05-27T02:19:42.400Z,12.50
2017-05-27T02:22:11.462Z,14.38
2017-05-27T02:24:40.511Z,12.58
2017-05-27T02:27:09.598Z,12.04
2017-05-27T02:29:38.649Z,12.42
2017-05-27T02:32:07.687Z,11.66
2017-05-27T02:34:36.754Z,16.12
2017-05-27T02:37:05.796Z,10.44
2017-05-27T02:39:34.863Z,12.38
2017-05-27T02:42:03.970Z,14.04
2017-05-27T02:44:33.126Z,9.94
2017-05-27T02:47:02.153Z,15.18
2017-05-27T02:49:31.263Z,10.96
2017-05-27T02:52:00.324Z,13.50
2017-05-27T02:54:29.373Z,11.98
2017-05-27T02:56:58.444Z,12.30
2017-05-27T02:59:27.494Z,11.62
2017-05-27T03:01:56.538Z,12.70
2017-05-27T03:04:25.638Z,16.08
2017-05-27T03:06:54.733Z,11.50
2017-05-27T03:09:23.829Z,14.80
2017-05-27T03:11:52.881Z,11.56
2017-05-27T03:14:22.024Z,14.90
2017-05-27T03:16:51.133Z,13.36
2017-05-27T03:19:20.230Z,11.16
2017-05-27T03:21:49.322Z,16.88
2017-05-27T03:24:18.400Z,14.20
2017-05-27T03:26:47.448Z,14.60
2017-05-27T03:29:16.508Z,16.80
2017-05-27T03:31:45.585Z,12.06
2017-05-27T03:34:14.680Z,13.98
2017-05-27T03:36:43.719Z,15.56
2017-05-27T03:39:12.770Z,11.08
2017-05-27T03:41:41.865Z,12.46
2017-05-27T03:44:10.921Z,14.62
2017-05-27T03:46:39.985Z,10.70
2017-05-27T03:49:09.076Z,15.42
2017-05-27T03:51:38.154Z,12.74
2017-05-27T03:54:07.244Z,15.86
2017-05-27T03:56:36.334Z,10.08
2017-05-27T03:59:05.406Z,10.68
2017-05-27T04:01:34.448Z,16.00
2017-05-27T04:04:03.525Z,10.58
2017-05-27T04:06:32.620Z,11.26
2017-05-27T04:09:01.674Z,9.72
2017-05-27T04:11:30.816Z,8.68
2017-05-27T04:13:59.924Z,14.58
2017-05-27T04:16:28.297Z,13.28
2017-05-27T04:18:57.340Z,10.86
2017-05-27T04:21:26.485Z,10.80
2017-05-27T04:23:55.577Z,10.02
2017-05-27T04:26:24.684Z,11.00
2017-05-27T04:28:53.746Z,12.16
2017-05-27T04:31:22.789Z,10.76
2017-05-27T04:33:51.864Z,11.00
2017-05-27T04:36:20.961Z,13.94
2017-05-27T04:38:50.066Z,8.74
2017-05-27T04:41:19.151Z,14.70
2017-05-27T04:43:48.197Z,11.84
2017-05-27T04:46:17.342Z,10.44
2017-05-27T04:48:46.444Z,9.78
2017-05-27T04:51:15.546Z,12.20
2017-05-27T04:53:44.609Z,9.30
2017-05-27T04:56:13.658Z,8.36
2017-05-27T04:58:42.820Z,8.44
2017-05-27T05:01:11.861Z,8.76
2017-05-27T05:03:40.901Z,9.74
2017-05-27T05:06:09.958Z,8.94
2017-05-27T05:08:39.058Z,8.40
2017-05-27T05:11:08.133Z,13.40
2017-05-27T05:13:37.175Z,7.82
2017-05-27T05:16:06.228Z,9.82
2017-05-27T05:18:35.338Z,7.88
2017-05-27T05:21:04.392Z,7.94
2017-05-27T05:23:33.541Z,7.94
2017-05-27T05:26:02.580Z,7.70
2017-05-27T05:28:31.728Z,7.98
2017-05-27T05:31:00.802Z,9.48
2017-05-27T05:33:29.930Z,7.98
2017-05-27T05:35:59.023Z,7.98
2017-05-27T05:38:28.105Z,7.34
2017-05-27T05:40:57.220Z,6.98
2017-05-27T05:43:26.303Z,7.24
2017-05-27T05:45:55.355Z,10.12
2017-05-27T05:48:24.393Z,6.24
2017-05-27T05:50:53.498Z,6.92
2017-05-27T05:53:22.595Z,7.28
2017-05-27T05:55:51.676Z,5.74
2017-05-27T05:58:20.782Z,7.44
2017-05-27T06:00:49.816Z,5.44
2017-05-27T06:03:18.873Z,7.06
2017-05-27T06:05:47.938Z,6.68
2017-05-27T06:08:17.160Z,6.34
2017-05-27T06:10:46.252Z,5.26
2017-05-27T06:13:15.358Z,7.44
2017-05-27T06:15:44.443Z,9.40
2017-05-27T06:18:13.489Z,6.60
2017-05-27T06:20:42.636Z,5.40
2017-05-27T06:23:11.692Z,8.22
2017-05-27T06:25:40.828Z,5.78
2017-05-27T06:28:09.868Z,5.04
2017-05-27T06:30:38.909Z,6.60
2017-05-27T06:33:08.016Z,7.44
2017-05-27T06:35:37.052Z,5.50
2017-05-27T06:38:06.213Z,5.70
2017-05-27T06:40:35.305Z,5.92
2017-05-27T06:43:04.344Z,5.16
2017-05-27T06:45:33.418Z,4.80
2017-05-27T06:48:02.488Z,4.90
2017-05-27T06:50:31.585Z,5.00
2017-05-27T06:53:00.632Z,5.28
2017-05-27T06:55:29.773Z,8.76
2017-05-27T06:57:58.828Z,12.48
2017-05-27T07:00:27.883Z,5.42
2017-05-27T07:02:56.963Z,7.50
2017-05-27T07:05:26.005Z,4.78
2017-05-27T07:07:55.038Z,7.84
2017-05-27T07:10:24.168Z,5.54
2017-05-27T07:12:53.213Z,5.10
2017-05-27T07:15:22.284Z,4.42
2017-05-27T07:17:51.326Z,5.48
2017-05-27T07:20:20.445Z,5.06
2017-05-27T07:22:49.546Z,4.00
2017-05-27T07:25:18.587Z,4.74
2017-05-27T07:27:47.669Z,4.20
2017-05-27T07:30:16.728Z,4.46
2017-05-27T07:32:45.825Z,4.26
2017-05-27T07:35:14.893Z,5.34
2017-05-27T07:37:43.944Z,3.60
2017-05-27T07:40:13.100Z,3.90
2017-05-27T07:42:42.149Z,3.66
2017-05-27T07:45:11.310Z,3.50
2017-05-27T07:47:40.392Z,3.50
2017-05-27T07:50:09.506Z,3.10
2017-05-27T07:52:38.577Z,3.50
2017-05-27T07:55:07.626Z,3.28
2017-05-27T07:57:36.787Z,3.04
2017-05-27T08:00:05.887Z,4.16
2017-05-27T08:02:34.946Z,2.46
2017-05-27T08:05:04.010Z,3.20
2017-05-27T08:07:33.158Z,3.34
2017-05-27T08:10:02.269Z,3.68
2017-05-27T08:12:31.352Z,2.78
2017-05-27T08:15:00.403Z,3.02
2017-05-27T08:17:29.566Z,4.64
2017-05-27T08:19:58.612Z,2.62
2017-05-27T08:22:27.686Z,2.54
2017-05-27T08:24:56.740Z,2.46
2017-05-27T08:27:25.867Z,4.12
2017-05-27T08:29:54.908Z,2.00
2017-05-27T08:32:29.609Z,2.50
2017-05-27T08:34:58.658Z,3.20
2017-05-27T08:37:27.776Z,2.08
2017-05-27T08:39:56.965Z,3.20
2017-05-27T08:42:26.013Z,3.76
2017-05-27T08:44:55.136Z,3.62
2017-05-27T08:47:24.182Z,2.50
2017-05-27T08:49:53.337Z,2.14
2017-05-27T08:52:22.398Z,2.02
2017-05-27T08:54:51.445Z,1.90
2017-05-27T08:57:20.622Z,1.88
2017-05-27T08:59:49.665Z,1.94
2017-05-27T09:02:18.810Z,2.00
2017-05-27T09:04:47.868Z,2.48
2017-05-27T09:07:17.007Z,1.88
2017-05-27T09:09:46.045Z,1.88
2017-05-27T09:12:15.104Z,2.12
2017-05-27T09:14:44.178Z,2.22
2017-05-27T09:17:13.235Z,1.82
2017-05-27T09:19:42.305Z,1.72
2017-05-27T09:22:11.345Z,1.84
2017-05-27T09:24:40.481Z,3.18
2017-05-27T09:27:09.539Z,5.48
2017-05-27T09:29:38.667Z,2.86
2017-05-27T09:32:07.727Z,2.88
2017-05-27T09:34:36.856Z,2.82
2017-05-27T09:37:05.895Z,2.62
2017-05-27T09:39:35.058Z,1.40
2017-05-27T09:42:04.132Z,1.76
2017-05-27T09:44:33.249Z,4.20
2017-05-27T09:47:02.291Z,3.74
2017-05-27T09:49:31.349Z,1.88
2017-05-27T09:52:00.418Z,2.56
2017-05-27T09:54:29.473Z,1.68
2017-05-27T09:56:58.622Z,5.54
2017-05-27T09:59:27.660Z,2.44
2017-05-27T10:01:56.817Z,2.10
2017-05-27T10:04:25.917Z,1.74
2017-05-27T10:06:55.013Z,1.84
2017-05-27T10:09:24.075Z,1.98
2017-05-27T10:11:53.112Z,1.78
2017-05-27T10:14:22.159Z,2.98
2017-05-27T10:16:51.230Z,1.70
2017-05-27T10:19:20.389Z,4.38
2017-05-27T10:21:49.476Z,4.70
2017-05-27T10:24:18.521Z,4.02
2017-05-27T10:26:47.569Z,1.74
2017-05-27T10:29:16.626Z,2.30
2017-05-27T10:31:45.766Z,2.52
2017-05-27T10:34:14.831Z,2.26
2017-05-27T10:36:43.947Z,1.80
2017-05-27T10:39:13.002Z,2.44
2017-05-27T10:41:42.146Z,5.04
2017-05-27T10:44:11.225Z,5.58
2017-05-27T10:46:40.294Z,1.90
2017-05-27T10:49:09.437Z,1.98
2017-05-27T10:51:38.530Z,3.74
2017-05-27T10:54:07.592Z,1.80
2017-05-27T10:56:36.635Z,1.96
2017-05-27T10:59:05.806Z,1.70
2017-05-27T11:01:34.909Z,2.58
2017-05-27T11:04:03.957Z,1.92
2017-05-27T11:06:33.098Z,2.06
2017-05-27T11:09:02.204Z,2.02
2017-05-27T11:11:30.508Z,2.00
2017-05-27T11:13:59.566Z,1.98
2017-05-27T11:16:28.673Z,1.76
2017-05-27T11:18:57.734Z,1.60
2017-05-27T11:21:26.843Z,2.36
2017-05-27T11:23:55.943Z,1.52
2017-05-27T11:26:24.989Z,2.18
2017-05-27T11:28:54.025Z,4.94
2017-05-27T11:31:23.166Z,1.80
2017-05-27T11:33:52.245Z,1.66
2017-05-27T11:36:21.330Z,2.48
2017-05-27T11:38:50.367Z,1.50
2017-05-27T11:41:19.530Z,2.38
2017-05-27T11:43:48.627Z,2.94
2017-05-27T11:46:17.703Z,1.94
2017-05-27T11:48:46.769Z,2.38
2017-05-27T11:51:15.934Z,4.30
2017-05-27T11:53:44.969Z,2.72
2017-05-27T11:56:14.094Z,3.28
2017-05-27T11:58:43.156Z,3.74
2017-05-27T12:01:12.294Z,2.00
2017-05-27T12:03:41.373Z,3.32
2017-05-27T12:06:10.445Z,2.02
2017-05-27T12:08:39.484Z,1.70
2017-05-27T12:11:08.524Z,3.26
2017-05-27T12:13:37.589Z,1.60
2017-05-27T12:16:06.653Z,1.56
2017-05-27T12:18:35.742Z,2.48
2017-05-27T12:21:04.847Z,2.24
2017-05-27T12:23:33.934Z,2.66
2017-05-27T12:26:02.990Z,3.42
2017-05-27T12:28:32.055Z,2.34
2017-05-27T12:31:01.146Z,2.92
2017-05-27T12:33:30.190Z,3.22
2017-05-27T12:35:59.312Z,2.12
2017-05-27T12:38:28.421Z,1.64
2017-05-27T12:40:57.633Z,1.66
2017-05-27T12:43:26.707Z,2.12
2017-05-27T12:45:55.748Z,1.82
2017-05-27T12:48:24.792Z,2.76
2017-05-27T12:50:53.848Z,1.80
2017-05-27T12:53:22.982Z,1.90
2017-05-27T12:55:52.081Z,1.80
2017-05-27T12:58:21.159Z,1.78
2017-05-27T13:00:50.201Z,2.14
2017-05-27T13:03:19.252Z,1.54
2017-05-27T13:05:48.367Z,1.94
2017-05-27T13:08:17.406Z,3.52
2017-05-27T13:10:46.571Z,4.66
2017-05-27T13:13:15.606Z,1.76
2017-05-27T13:15:44.745Z,1.72
2017-05-27T13:18:13.819Z,2.60
2017-05-27T13:20:42.953Z,2.40
2017-05-27T13:23:12.038Z,2.04
2017-05-27T13:25:41.133Z,1.86
2017-05-27T13:28:10.238Z,2.70
2017-05-27T13:30:39.297Z,2.36
2017-05-27T13:33:08.342Z,2.80
2017-05-27T13:35:37.589Z,2.00
2017-05-27T13:38:06.721Z,2.22
2017-05-27T13:40:35.756Z,1.60
2017-05-27T13:43:04.820Z,1.98
2017-05-27T13:45:33.864Z,2.50
2017-05-27T13:48:02.925Z,1.76
2017-05-27T13:50:31.970Z,1.82
2017-05-27T13:53:01.032Z,2.34
2017-05-27T13:55:30.180Z,2.36
2017-05-27T13:57:59.239Z,1.78
2017-05-27T14:00:28.357Z,1.42
2017-05-27T14:02:57.475Z,3.80
2017-05-27T14:05:26.538Z,1.90
2017-05-27T14:07:55.670Z,5.84
2017-05-27T14:10:24.739Z,1.72
2017-05-27T14:12:53.769Z,1.78
2017-05-27T14:15:22.848Z,2.00
2017-05-27T14:17:51.905Z,1.86
2017-05-27T14:20:21.040Z,2.34
2017-05-27T14:22:50.141Z,1.74
2017-05-27T14:25:19.201Z,1.68
2017-05-27T14:27:48.241Z,1.80
2017-05-27T14:30:17.297Z,1.54
2017-05-27T14:32:46.350Z,1.52
2017-05-27T14:35:15.407Z,1.70
2017-05-27T14:37:44.463Z,1.92
2017-05-27T14:40:13.493Z,1.70
2017-05-27T14:42:42.588Z,2.42
2017-05-27T14:45:11.700Z,1.84
2017-05-27T14:47:40.740Z,2.94
2017-05-27T14:50:09.895Z,1.50
2017-05-27T14:52:38.937Z,1.86
2017-05-27T14:55:08.083Z,2.02
2017-05-27T14:57:37.130Z,1.72
2017-05-27T15:00:06.185Z,3.34
2017-05-27T15:02:35.296Z,1.72
2017-05-27T15:05:04.372Z,1.66
2017-05-27T15:07:33.454Z,2.00
2017-05-27T15:10:02.509Z,2.72
2017-05-27T15:12:31.651Z,1.74
2017-05-27T15:15:00.701Z,1.88
2017-05-27T15:17:29.833Z,2.06
2017-05-27T15:19:58.945Z,2.62
2017-05-27T15:22:28.053Z,3.06
2017-05-27T15:24:57.128Z,3.42
2017-05-27T15:27:26.179Z,2.16
2017-05-27T15:29:55.259Z,1.86
2017-05-27T15:32:24.294Z,2.32
2017-05-27T15:34:53.342Z,2.22
2017-05-27T15:37:22.415Z,2.26
2017-05-27T15:39:51.461Z,2.32
2017-05-27T15:42:20.519Z,1.86
2017-05-27T15:44:49.599Z,1.90
2017-05-27T15:47:18.652Z,2.54
2017-05-27T15:49:48.155Z,3.00
2017-05-27T15:52:17.200Z,2.28
2017-05-27T15:54:46.289Z,2.88
2017-05-27T15:57:15.385Z,2.60
2017-05-27T15:59:44.485Z,2.36
2017-05-27T16:02:13.572Z,2.52
2017-05-27T16:04:42.622Z,2.74
2017-05-27T16:07:11.682Z,2.80
2017-05-27T16:09:40.767Z,2.70
2017-05-27T16:12:09.855Z,3.24
2017-05-27T16:14:38.892Z,2.30
2017-05-27T16:17:07.940Z,8.20
2017-05-27T16:19:37.039Z,4.72
2017-05-27T16:22:06.238Z,2.68
2017-05-27T16:24:35.436Z,3.80
2017-05-27T16:27:04.567Z,3.18
2017-05-27T16:29:33.742Z,2.50
2017-05-27T16:32:02.782Z,3.26
2017-05-27T16:34:31.856Z,3.24
2017-05-27T16:37:00.894Z,2.94
2017-05-27T16:39:30.013Z,3.94
2017-05-27T16:41:59.063Z,2.72
2017-05-27T16:44:28.205Z,3.94
2017-05-27T16:46:57.642Z,3.34
2017-05-27T16:49:26.698Z,4.48
2017-05-27T16:51:55.743Z,4.32
2017-05-27T16:54:24.893Z,4.58
2017-05-27T16:56:53.992Z,4.56
2017-05-27T16:59:23.097Z,3.52
2017-05-27T17:01:52.158Z,3.22
2017-05-27T17:04:21.198Z,3.58
2017-05-27T17:06:50.278Z,3.34
2017-05-27T17:09:19.315Z,4.18
2017-05-27T17:11:48.377Z,2.90
2017-05-27T17:14:17.459Z,3.22
2017-05-27T17:16:46.556Z,3.70
2017-05-27T17:19:15.655Z,3.34
2017-05-27T17:21:44.709Z,3.26
2017-05-27T17:24:13.840Z,4.20
2017-05-27T17:26:42.950Z,2.94
2017-05-27T17:29:12.057Z,3.82
2017-05-27T17:31:41.128Z,4.04
2017-05-27T17:34:10.323Z,5.02
2017-05-27T17:36:39.384Z,3.60
2017-05-27T17:39:08.443Z,2.80
2017-05-27T17:41:37.497Z,2.94
2017-05-27T17:44:06.632Z,5.42
2017-05-27T17:46:35.665Z,2.72
2017-05-27T17:49:04.721Z,3.44
2017-05-27T17:51:33.803Z,4.78
2017-05-27T17:54:02.873Z,3.00
2017-05-27T17:56:31.917Z,3.44
2017-05-27T17:59:01.086Z,3.46
2017-05-27T18:01:30.138Z,3.16
2017-05-27T18:03:59.189Z,2.82
2017-05-27T18:06:28.270Z,3.40
2017-05-27T18:08:57.350Z,2.90
2017-05-27T18:11:26.473Z,5.62
2017-05-27T18:13:55.567Z,4.06
2017-05-27T18:16:24.686Z,2.84
2017-05-27T18:18:53.761Z,3.32
2017-05-27T18:21:22.865Z,3.36
2017-05-27T18:23:51.954Z,4.88
2017-05-27T18:26:21.055Z,4.00
2017-05-27T18:28:50.162Z,3.56
2017-05-27T18:31:19.209Z,4.12
2017-05-27T18:33:48.281Z,3.82
2017-05-27T18:36:17.355Z,3.26
2017-05-27T18:38:46.389Z,4.70
2017-05-27T18:41:15.518Z,4.32
2017-05-27T18:43:44.573Z,4.80
2017-05-27T18:46:13.616Z,5.86
2017-05-27T18:48:42.693Z,5.72
2017-05-27T18:51:11.761Z,5.90
2017-05-27T18:53:40.796Z,6.26
2017-05-27T18:56:09.866Z,5.64
2017-05-27T18:58:38.905Z,5.48
2017-05-27T19:01:08.011Z,6.50
2017-05-27T19:03:37.052Z,4.00
2017-05-27T19:06:06.170Z,10.02
2017-05-27T19:08:35.273Z,3.90
2017-05-27T19:11:04.463Z,4.04
2017-05-27T19:13:33.557Z,4.94
2017-05-27T19:16:02.604Z,3.36
2017-05-27T19:18:31.634Z,3.90
2017-05-27T19:21:00.680Z,4.42
2017-05-27T19:23:29.737Z,4.88
2017-05-27T19:25:58.854Z,4.48
2017-05-27T19:28:27.892Z,3.54
2017-05-27T19:30:56.970Z,4.02
2017-05-27T19:33:26.027Z,5.38
2017-05-27T19:35:55.214Z,3.42
2017-05-27T19:38:24.280Z,4.28
2017-05-27T19:40:53.426Z,4.64
2017-05-27T19:43:22.513Z,4.78
2017-05-27T19:45:51.552Z,5.70
2017-05-27T19:48:20.710Z,3.60
2017-05-27T19:50:49.754Z,3.80
2017-05-27T19:53:18.891Z,6.64
2017-05-27T19:55:47.988Z,2.72
2017-05-27T19:58:17.085Z,4.02
2017-05-27T20:00:46.183Z,3.70
2017-05-27T20:03:15.279Z,4.32
2017-05-27T20:05:44.316Z,3.54
2017-05-27T20:08:13.369Z,3.26
2017-05-27T20:10:42.457Z,3.40
2017-05-27T20:13:11.544Z,3.84
2017-05-27T20:15:40.589Z,4.18
2017-05-27T20:18:09.641Z,4.32
2017-05-27T20:20:38.700Z,4.14
2017-05-27T20:23:07.838Z,3.88
2017-05-27T20:25:36.912Z,3.72
2017-05-27T20:28:06.027Z,3.48
2017-05-27T20:30:35.130Z,4.60
2017-05-27T20:33:04.224Z,4.00
2017-05-27T20:35:33.313Z,7.90
2017-05-27T20:38:02.429Z,5.32
2017-05-27T20:40:31.509Z,4.88
2017-05-27T20:43:00.625Z,4.62
2017-05-27T20:45:29.724Z,5.00
2017-05-27T20:47:58.758Z,5.90
2017-05-27T20:50:27.810Z,5.04
2017-05-27T20:52:56.852Z,5.06
2017-05-27T20:55:25.916Z,4.58
2017-05-27T20:57:55.001Z,4.82
2017-05-27T21:00:24.079Z,5.26
2017-05-27T21:02:53.166Z,4.58
2017-05-27T21:05:22.275Z,4.24
2017-05-27T21:07:51.315Z,4.94
2017-05-27T21:10:20.365Z,4.34
2017-05-27T21:12:49.450Z,5.14
2017-05-27T21:15:18.530Z,5.56
2017-05-27T21:17:47.573Z,4.78
2017-05-27T21:20:16.653Z,5.54
2017-05-27T21:22:45.738Z,4.84
2017-05-27T21:25:14.783Z,5.30
2017-05-27T21:27:43.925Z,5.20
2017-05-27T21:30:12.966Z,5.06
2017-05-27T21:32:42.117Z,4.76
2017-05-27T21:35:11.188Z,4.44
2017-05-27T21:37:40.238Z,5.16
2017-05-27T21:40:09.303Z,5.42
2017-05-27T21:42:38.354Z,5.50
2017-05-27T21:45:07.445Z,5.70
2017-05-27T21:47:36.489Z,4.84
2017-05-27T21:50:05.542Z,5.38
2017-05-27T21:52:34.653Z,5.70
2017-05-27T21:55:03.696Z,5.20
2017-05-27T21:57:32.870Z,6.40
2017-05-27T22:00:01.969Z,10.54
2017-05-27T22:02:31.022Z,5.52
2017-05-27T22:05:00.091Z,5.68
2017-05-27T22:07:29.183Z,6.66
2017-05-27T22:09:58.218Z,6.00
2017-05-27T22:12:27.349Z,10.70
2017-05-27T22:14:56.400Z,10.24
2017-05-27T22:17:25.537Z,7.02
2017-05-27T22:19:54.582Z,8.14
2017-05-27T22:22:23.735Z,6.10
2017-05-27T22:24:52.827Z,5.84
2017-05-27T22:27:21.914Z,7.28
2017-05-27T22:29:50.975Z,6.38
2017-05-27T22:32:20.021Z,6.56
2017-05-27T22:34:49.126Z,5.38
2017-05-27T22:37:18.159Z,5.72
2017-05-27T22:39:47.244Z,5.68
2017-05-27T22:42:18.432Z,6.14
2017-05-27T22:44:47.596Z,5.60
2017-05-27T22:47:16.676Z,8.20
2017-05-27T22:49:45.708Z,6.84
2017-05-27T22:52:14.759Z,6.14
2017-05-27T22:54:43.824Z,5.96
2017-05-27T22:57:13.781Z,5.68
2017-05-27T22:59:42.895Z,5.98
2017-05-27T23:02:11.985Z,5.20
2017-05-27T23:04:41.091Z,6.12
2017-05-27T23:07:10.155Z,6.50
2017-05-27T23:09:39.288Z,5.68
2017-05-27T23:12:09.439Z,6.10
2017-05-27T23:14:38.480Z,6.26
2017-05-27T23:17:07.554Z,5.14
2017-05-27T23:19:36.685Z,6.06
2017-05-27T23:22:05.725Z,5.84
2017-05-27T23:24:34.820Z,6.76
2017-05-27T23:27:03.974Z,5.66
2017-05-27T23:29:33.018Z,7.14
2017-05-27T23:32:02.082Z,5.64
2017-05-27T23:34:31.151Z,6.12
2017-05-27T23:37:00.217Z,5.60
2017-05-27T23:39:29.268Z,7.28
2017-05-27T23:41:58.374Z,7.04
2017-05-27T23:44:27.431Z,6.54
2017-05-27T23:46:56.550Z,5.86
2017-05-27T23:49:25.713Z,5.68
2017-05-27T23:51:54.833Z,5.66
2017-05-27T23:54:23.883Z,5.58
2017-05-27T23:56:52.954Z,5.56
2017-05-27T23:59:22.016Z,6.04
